Lyons, CO

1:35 PM MDT on April 18, 2015 (GMT -0600)
Kelling | | Change Station
CLOSE
Current Station
Personal Weather Station
Location: Lyons, CO
Elevation: 5436 ft
Nearby Weather Stations

Elev 5436 ft 40.22 °N, 105.26 °W | Updated 6 seconds ago

Partly Cloudy
Partly Cloudy
52.0 °F
Feels Like 52.0 °F
N
5.4
Wind Variable Wind from South
Gusts 9.8 mph

Today
High -- | Low -- °F
--% Chance of Precip.
Yesterday
High -- | Low -- °F
Precip. -- in
6:18 AM 7:42 PM
New Moon, 0% visible
Pressure 29.92 in
Visibility 10.0 miles
Clouds Clear
Dew Point 35 °F
Humidity 52%
Rainfall 0.00 in
Snow Depth Not available.
UV 11 out of 12
Pollen 6.20 out of 12
Air Quality Not available.
Flu Activity Local Activity
METAR KLMO 181855Z AUTO 00000KT 10SM CLR 14/01 A2992 RMK AO2 T01360011

More Conditions Fewer Conditions

Pressure 29.92 in
Visibility 10.0 miles
Clouds Clear
Dew Point 35 °F
Humidity 52%
Rainfall 0.00 in
Snow Depth Not available.
UV 11 out of 12
Pollen 6.20 out of 12
Air Quality Not available.
Flu Activity Local Activity
METAR KLMO 181855Z AUTO 00000KT 10SM CLR 14/01 A2992 RMK AO2 T01360011

More Conditions Fewer Conditions

Nowcast | as of 12:14 PM MDT on April 18, 2015

Skies will be partly to mostly cloudy with isolated rain showers developing and moving southward through the early afternoon. The showers will initially be most numerous over eastern Larimer County. Rainfall amounts should be one-tenth of an inch or less.

×

10-Day Weather Forecast

Almanac

Astronomy

Apr. 18, 2015 Rise Set
Actual Time
Civil Twilight
Nautical Twilight
Astronomical Twilight
Moon
Length of Visible Light
Length of Day
Tomorrow will be .
, % of the Moon is Illuminated

Today's Extremes

State Highs State Lows

Community

WunderPhotos

Upload Photos

1,814,502 photos uploaded!

WunderBlogs® & News

Nearby

Air Quality

  Air Quality AQ Index Pollutant
Not available.

Snow Depth

Station Depth Elevation

Earthquake Activity

City Distance Mag. Time & Date
Minimum magnitude displayed is 2.5.

Coastal Water Temperatures

Place Temperature

Stations

Nearby Weather Stations

Station Location Temp. Windchill Dew Point Humidity Wind Precip. Elev Updated Type